sensor_id;sensor_type;location;lat;lon;timestamp;temperature;humidity
33673;DHT22;20011;51.510;9.942;2022-11-15T00:01:42;11.90;99.90
33673;DHT22;20011;51.510;9.942;2022-11-15T00:04:28;11.90;99.90
33673;DHT22;20011;51.510;9.942;2022-11-15T00:07:13;11.90;99.90
33673;DHT22;20011;51.510;9.942;2022-11-15T00:10:19;11.90;99.90
33673;DHT22;20011;51.510;9.942;2022-11-15T00:13:10;12.00;99.90
33673;DHT22;20011;51.510;9.942;2022-11-15T00:16:00;11.90;99.90
33673;DHT22;20011;51.510;9.942;2022-11-15T00:18:45;12.00;99.90
33673;DHT22;20011;51.510;9.942;2022-11-15T00:21:35;12.00;99.90
33673;DHT22;20011;51.510;9.942;2022-11-15T00:24:20;12.00;99.90
33673;DHT22;20011;51.510;9.942;2022-11-15T00:27:06;12.00;99.90
33673;DHT22;20011;51.510;9.942;2022-11-15T00:29:52;12.00;99.90
33673;DHT22;20011;51.510;9.942;2022-11-15T00:32:38;12.00;99.90
33673;DHT22;20011;51.510;9.942;2022-11-15T00:35:24;12.00;99.90
33673;DHT22;20011;51.510;9.942;2022-11-15T00:38:09;12.00;99.90
33673;DHT22;20011;51.510;9.942;2022-11-15T00:40:54;12.00;99.90
33673;DHT22;20011;51.510;9.942;2022-11-15T00:43:40;12.00;99.90
33673;DHT22;20011;51.510;9.942;2022-11-15T00:46:28;12.10;99.90
33673;DHT22;20011;51.510;9.942;2022-11-15T00:49:14;12.10;99.90
33673;DHT22;20011;51.510;9.942;2022-11-15T00:51:59;12.10;99.90
33673;DHT22;20011;51.510;9.942;2022-11-15T00:54:45;12.10;99.90
33673;DHT22;20011;51.510;9.942;2022-11-15T00:57:31;12.10;99.90
33673;DHT22;20011;51.510;9.942;2022-11-15T01:00:16;12.10;99.90
33673;DHT22;20011;51.510;9.942;2022-11-15T01:03:02;12.10;99.90
33673;DHT22;20011;51.510;9.942;2022-11-15T01:05:47;12.10;99.90
33673;DHT22;20011;51.510;9.942;2022-11-15T01:08:33;12.10;99.90
33673;DHT22;20011;51.510;9.942;2022-11-15T01:11:18;12.10;99.90
33673;DHT22;20011;51.510;9.942;2022-11-15T01:14:04;12.20;99.90
33673;DHT22;20011;51.510;9.942;2022-11-15T01:16:49;12.20;99.90
33673;DHT22;20011;51.510;9.942;2022-11-15T01:19:35;12.20;99.90
33673;DHT22;20011;51.510;9.942;2022-11-15T01:22:21;12.20;99.90
33673;DHT22;20011;51.510;9.942;2022-11-15T01:25:06;12.20;99.90
33673;DHT22;20011;51.510;9.942;2022-11-15T01:27:52;12.30;99.90
33673;DHT22;20011;51.510;9.942;2022-11-15T01:30:37;12.20;99.90
33673;DHT22;20011;51.510;9.942;2022-11-15T01:33:23;12.30;99.90
33673;DHT22;20011;51.510;9.942;2022-11-15T01:36:15;12.30;99.90
33673;DHT22;20011;51.510;9.942;2022-11-15T01:39:00;12.30;99.90
33673;DHT22;20011;51.510;9.942;2022-11-15T01:41:46;12.30;99.90
33673;DHT22;20011;51.510;9.942;2022-11-15T01:44:51;12.30;99.90
33673;DHT22;20011;51.510;9.942;2022-11-15T01:47:43;12.30;99.90
33673;DHT22;20011;51.510;9.942;2022-11-15T01:50:32;12.30;99.90
33673;DHT22;20011;51.510;9.942;2022-11-15T01:53:19;12.30;99.90
33673;DHT22;20011;51.510;9.942;2022-11-15T01:56:09;12.30;99.90
33673;DHT22;20011;51.510;9.942;2022-11-15T01:58:57;12.30;99.90
33673;DHT22;20011;51.510;9.942;2022-11-15T02:01:43;12.30;99.90
33673;DHT22;20011;51.510;9.942;2022-11-15T02:04:32;12.30;99.90
33673;DHT22;20011;51.510;9.942;2022-11-15T02:07:20;12.20;99.90
33673;DHT22;20011;51.510;9.942;2022-11-15T02:10:09;12.20;99.90
33673;DHT22;20011;51.510;9.942;2022-11-15T02:12:56;12.20;99.90
33673;DHT22;20011;51.510;9.942;2022-11-15T02:19:13;12.20;99.90
33673;DHT22;20011;51.510;9.942;2022-11-15T02:25:39;12.20;99.90
33673;DHT22;20011;51.510;9.942;2022-11-15T02:28:58;12.20;99.90
33673;DHT22;20011;51.510;9.942;2022-11-15T02:32:14;12.20;99.90
33673;DHT22;20011;51.510;9.942;2022-11-15T02:35:16;12.20;99.90
33673;DHT22;20011;51.510;9.942;2022-11-15T02:44:37;12.20;99.90
33673;DHT22;20011;51.510;9.942;2022-11-15T02:47:25;12.20;99.90
33673;DHT22;20011;51.510;9.942;2022-11-15T02:50:18;12.20;99.90
33673;DHT22;20011;51.510;9.942;2022-11-15T02:53:04;12.20;99.90
33673;DHT22;20011;51.510;9.942;2022-11-15T02:55:51;12.20;99.90
33673;DHT22;20011;51.510;9.942;2022-11-15T03:04:44;12.20;99.90
33673;DHT22;20011;51.510;9.942;2022-11-15T03:07:57;12.20;99.90
33673;DHT22;20011;51.510;9.942;2022-11-15T03:10:56;12.20;99.90
33673;DHT22;20011;51.510;9.942;2022-11-15T03:19:51;12.10;99.90
33673;DHT22;20011;51.510;9.942;2022-11-15T03:22:42;12.20;99.90
33673;DHT22;20011;51.510;9.942;2022-11-15T03:25:29;12.10;99.90
33673;DHT22;20011;51.510;9.942;2022-11-15T03:28:22;12.20;99.90
33673;DHT22;20011;51.510;9.942;2022-11-15T03:31:10;12.20;99.90
33673;DHT22;20011;51.510;9.942;2022-11-15T03:34:52;12.20;99.90
33673;DHT22;20011;51.510;9.942;2022-11-15T03:38:19;12.20;99.90
33673;DHT22;20011;51.510;9.942;2022-11-15T03:41:20;12.10;99.90
33673;DHT22;20011;51.510;9.942;2022-11-15T03:50:17;12.20;99.90
33673;DHT22;20011;51.510;9.942;2022-11-15T03:53:03;12.20;99.90
33673;DHT22;20011;51.510;9.942;2022-11-15T03:55:49;12.10;99.90
33673;DHT22;20011;51.510;9.942;2022-11-15T03:58:34;12.10;99.90
33673;DHT22;20011;51.510;9.942;2022-11-15T04:01:20;12.10;99.90
33673;DHT22;20011;51.510;9.942;2022-11-15T04:04:05;12.10;99.90
33673;DHT22;20011;51.510;9.942;2022-11-15T04:06:51;12.10;99.90
33673;DHT22;20011;51.510;9.942;2022-11-15T04:09:37;12.10;99.90
33673;DHT22;20011;51.510;9.942;2022-11-15T04:12:42;12.10;99.90
33673;DHT22;20011;51.510;9.942;2022-11-15T04:15:28;12.10;99.90
33673;DHT22;20011;51.510;9.942;2022-11-15T04:18:14;12.10;99.90
33673;DHT22;20011;51.510;9.942;2022-11-15T04:21:00;12.10;99.90
33673;DHT22;20011;51.510;9.942;2022-11-15T04:24:04;12.10;99.90
33673;DHT22;20011;51.510;9.942;2022-11-15T04:26:52;12.10;99.90
33673;DHT22;20011;51.510;9.942;2022-11-15T04:29:37;12.00;99.90
33673;DHT22;20011;51.510;9.942;2022-11-15T04:32:23;12.00;99.90
33673;DHT22;20011;51.510;9.942;2022-11-15T04:35:09;12.00;99.90
33673;DHT22;20011;51.510;9.942;2022-11-15T04:37:55;12.00;99.90
33673;DHT22;20011;51.510;9.942;2022-11-15T04:40:41;11.90;99.90
33673;DHT22;20011;51.510;9.942;2022-11-15T04:43:27;11.90;99.90
33673;DHT22;20011;51.510;9.942;2022-11-15T04:46:12;11.80;99.90
33673;DHT22;20011;51.510;9.942;2022-11-15T04:48:57;11.80;99.90
33673;DHT22;20011;51.510;9.942;2022-11-15T04:51:44;11.90;99.90
33673;DHT22;20011;51.510;9.942;2022-11-15T04:54:29;11.80;99.90
33673;DHT22;20011;51.510;9.942;2022-11-15T04:57:15;11.80;99.90
33673;DHT22;20011;51.510;9.942;2022-11-15T05:00:03;11.70;99.90
33673;DHT22;20011;51.510;9.942;2022-11-15T05:02:49;11.70;99.90
33673;DHT22;20011;51.510;9.942;2022-11-15T05:05:53;11.60;99.90
33673;DHT22;20011;51.510;9.942;2022-11-15T05:08:38;11.50;99.90
33673;DHT22;20011;51.510;9.942;2022-11-15T05:11:24;11.40;99.90
33673;DHT22;20011;51.510;9.942;2022-11-15T05:14:10;11.40;99.90
33673;DHT22;20011;51.510;9.942;2022-11-15T05:16:55;11.30;99.90
33673;DHT22;20011;51.510;9.942;2022-11-15T05:19:41;11.30;99.90
33673;DHT22;20011;51.510;9.942;2022-11-15T05:22:27;11.20;99.90
33673;DHT22;20011;51.510;9.942;2022-11-15T05:25:13;11.20;99.90
33673;DHT22;20011;51.510;9.942;2022-11-15T05:27:58;11.10;99.90
33673;DHT22;20011;51.510;9.942;2022-11-15T05:30:44;11.10;99.90
33673;DHT22;20011;51.510;9.942;2022-11-15T05:33:30;11.00;99.90
33673;DHT22;20011;51.510;9.942;2022-11-15T05:39:08;10.90;99.90
33673;DHT22;20011;51.510;9.942;2022-11-15T05:41:59;10.80;99.90
33673;DHT22;20011;51.510;9.942;2022-11-15T05:44:48;10.80;99.90
33673;DHT22;20011;51.510;9.942;2022-11-15T05:47:36;10.80;99.90
33673;DHT22;20011;51.510;9.942;2022-11-15T05:50:23;10.70;99.90
33673;DHT22;20011;51.510;9.942;2022-11-15T05:53:10;10.70;99.90
33673;DHT22;20011;51.510;9.942;2022-11-15T05:55:56;10.60;99.90
33673;DHT22;20011;51.510;9.942;2022-11-15T05:58:42;10.60;99.90
33673;DHT22;20011;51.510;9.942;2022-11-15T06:01:28;10.70;99.90
33673;DHT22;20011;51.510;9.942;2022-11-15T06:04:13;10.70;99.90
33673;DHT22;20011;51.510;9.942;2022-11-15T06:06:59;10.80;99.90
33673;DHT22;20011;51.510;9.942;2022-11-15T06:09:45;10.80;99.90
33673;DHT22;20011;51.510;9.942;2022-11-15T06:12:30;10.90;99.90
33673;DHT22;20011;51.510;9.942;2022-11-15T06:15:16;10.90;99.90
33673;DHT22;20011;51.510;9.942;2022-11-15T06:18:02;10.90;99.90
33673;DHT22;20011;51.510;9.942;2022-11-15T06:20:47;11.00;99.90
33673;DHT22;20011;51.510;9.942;2022-11-15T06:23:34;10.90;99.90
33673;DHT22;20011;51.510;9.942;2022-11-15T06:26:20;10.90;99.90
33673;DHT22;20011;51.510;9.942;2022-11-15T06:29:05;10.90;99.90
33673;DHT22;20011;51.510;9.942;2022-11-15T06:31:50;11.00;99.90
33673;DHT22;20011;51.510;9.942;2022-11-15T06:34:36;11.00;99.90
33673;DHT22;20011;51.510;9.942;2022-11-15T06:37:21;11.00;99.90
33673;DHT22;20011;51.510;9.942;2022-11-15T06:40:08;11.00;99.90
33673;DHT22;20011;51.510;9.942;2022-11-15T06:43:00;11.00;99.90
33673;DHT22;20011;51.510;9.942;2022-11-15T06:45:46;11.10;99.90
33673;DHT22;20011;51.510;9.942;2022-11-15T06:48:32;11.10;99.90
33673;DHT22;20011;51.510;9.942;2022-11-15T06:51:18;11.10;99.90
33673;DHT22;20011;51.510;9.942;2022-11-15T06:54:04;11.20;99.90
33673;DHT22;20011;51.510;9.942;2022-11-15T06:56:49;11.10;99.90
33673;DHT22;20011;51.510;9.942;2022-11-15T06:59:36;11.10;99.90
33673;DHT22;20011;51.510;9.942;2022-11-15T07:02:25;11.10;99.90
33673;DHT22;20011;51.510;9.942;2022-11-15T07:05:11;11.00;99.90
33673;DHT22;20011;51.510;9.942;2022-11-15T07:07:58;11.00;99.90
33673;DHT22;20011;51.510;9.942;2022-11-15T07:10:43;11.00;99.90
33673;DHT22;20011;51.510;9.942;2022-11-15T07:13:30;10.90;99.90
33673;DHT22;20011;51.510;9.942;2022-11-15T07:16:19;10.90;99.90
33673;DHT22;20011;51.510;9.942;2022-11-15T07:19:05;10.90;99.90
33673;DHT22;20011;51.510;9.942;2022-11-15T07:21:51;10.90;99.90
33673;DHT22;20011;51.510;9.942;2022-11-15T07:24:36;10.90;99.90
33673;DHT22;20011;51.510;9.942;2022-11-15T07:27:22;10.90;99.90
33673;DHT22;20011;51.510;9.942;2022-11-15T07:30:08;11.00;99.90
33673;DHT22;20011;51.510;9.942;2022-11-15T07:32:55;11.00;99.90
33673;DHT22;20011;51.510;9.942;2022-11-15T07:35:40;11.00;99.90
33673;DHT22;20011;51.510;9.942;2022-11-15T07:38:25;11.00;99.90
33673;DHT22;20011;51.510;9.942;2022-11-15T07:41:11;11.10;99.90
33673;DHT22;20011;51.510;9.942;2022-11-15T07:43:57;11.10;99.90
33673;DHT22;20011;51.510;9.942;2022-11-15T07:46:42;11.10;99.90
33673;DHT22;20011;51.510;9.942;2022-11-15T07:49:28;11.10;99.90
33673;DHT22;20011;51.510;9.942;2022-11-15T07:52:13;11.20;99.90
33673;DHT22;20011;51.510;9.942;2022-11-15T07:54:59;11.20;99.90
33673;DHT22;20011;51.510;9.942;2022-11-15T07:57:44;11.20;99.90
33673;DHT22;20011;51.510;9.942;2022-11-15T08:00:30;11.30;99.90
33673;DHT22;20011;51.510;9.942;2022-11-15T08:03:17;11.30;99.90
33673;DHT22;20011;51.510;9.942;2022-11-15T08:06:03;11.30;99.90
33673;DHT22;20011;51.510;9.942;2022-11-15T08:08:49;11.20;99.90
33673;DHT22;20011;51.510;9.942;2022-11-15T08:11:34;11.20;99.90
33673;DHT22;20011;51.510;9.942;2022-11-15T08:14:20;11.20;99.90
33673;DHT22;20011;51.510;9.942;2022-11-15T08:17:06;11.10;99.90
33673;DHT22;20011;51.510;9.942;2022-11-15T08:19:52;11.10;99.90
33673;DHT22;20011;51.510;9.942;2022-11-15T08:22:38;11.00;99.90
33673;DHT22;20011;51.510;9.942;2022-11-15T08:25:24;11.00;99.90
33673;DHT22;20011;51.510;9.942;2022-11-15T08:28:13;11.00;99.90
33673;DHT22;20011;51.510;9.942;2022-11-15T08:31:01;11.00;99.90
33673;DHT22;20011;51.510;9.942;2022-11-15T08:33:47;10.90;99.90
33673;DHT22;20011;51.510;9.942;2022-11-15T08:36:33;10.90;99.90
33673;DHT22;20011;51.510;9.942;2022-11-15T08:39:29;11.00;99.90
33673;DHT22;20011;51.510;9.942;2022-11-15T08:42:15;11.00;99.90
33673;DHT22;20011;51.510;9.942;2022-11-15T08:45:04;11.00;99.90
33673;DHT22;20011;51.510;9.942;2022-11-15T08:47:50;11.00;99.90
33673;DHT22;20011;51.510;9.942;2022-11-15T08:50:39;11.10;99.90
33673;DHT22;20011;51.510;9.942;2022-11-15T08:53:24;11.10;99.90
33673;DHT22;20011;51.510;9.942;2022-11-15T08:56:11;11.20;99.90
33673;DHT22;20011;51.510;9.942;2022-11-15T08:58:57;11.20;99.90
33673;DHT22;20011;51.510;9.942;2022-11-15T09:01:42;11.30;99.90
33673;DHT22;20011;51.510;9.942;2022-11-15T09:04:28;11.30;99.90
33673;DHT22;20011;51.510;9.942;2022-11-15T09:07:14;11.30;99.90
33673;DHT22;20011;51.510;9.942;2022-11-15T09:09:59;11.40;99.90
33673;DHT22;20011;51.510;9.942;2022-11-15T09:12:45;11.50;99.90
33673;DHT22;20011;51.510;9.942;2022-11-15T09:15:33;11.50;99.90
33673;DHT22;20011;51.510;9.942;2022-11-15T09:18:19;11.50;99.90
33673;DHT22;20011;51.510;9.942;2022-11-15T09:21:08;11.60;99.90
33673;DHT22;20011;51.510;9.942;2022-11-15T09:23:55;11.60;99.90
33673;DHT22;20011;51.510;9.942;2022-11-15T09:26:41;11.60;99.90
33673;DHT22;20011;51.510;9.942;2022-11-15T09:29:26;11.60;99.90
33673;DHT22;20011;51.510;9.942;2022-11-15T09:32:12;11.70;99.90
33673;DHT22;20011;51.510;9.942;2022-11-15T09:34:57;11.80;99.90
33673;DHT22;20011;51.510;9.942;2022-11-15T09:37:43;11.80;99.90
33673;DHT22;20011;51.510;9.942;2022-11-15T09:40:30;11.80;99.90
33673;DHT22;20011;51.510;9.942;2022-11-15T09:43:33;11.90;99.90
33673;DHT22;20011;51.510;9.942;2022-11-15T09:46:33;11.90;99.90
33673;DHT22;20011;51.510;9.942;2022-11-15T09:49:15;12.00;99.90
33673;DHT22;20011;51.510;9.942;2022-11-15T09:52:00;12.00;99.90
33673;DHT22;20011;51.510;9.942;2022-11-15T09:54:35;12.00;99.90
33673;DHT22;20011;51.510;9.942;2022-11-15T10:05:47;12.20;99.90
33673;DHT22;20011;51.510;9.942;2022-11-15T10:10:56;12.20;99.90
33673;DHT22;20011;51.510;9.942;2022-11-15T10:13:46;12.30;99.90
33673;DHT22;20011;51.510;9.942;2022-11-15T10:19:16;12.30;99.90
33673;DHT22;20011;51.510;9.942;2022-11-15T10:24:43;12.40;99.90
33673;DHT22;20011;51.510;9.942;2022-11-15T10:27:16;12.40;99.90
33673;DHT22;20011;51.510;9.942;2022-11-15T10:29:50;12.40;99.90
33673;DHT22;20011;51.510;9.942;2022-11-15T10:32:19;12.40;99.90
33673;DHT22;20011;51.510;9.942;2022-11-15T10:34:48;12.50;99.90
33673;DHT22;20011;51.510;9.942;2022-11-15T10:37:30;12.50;99.90
33673;DHT22;20011;51.510;9.942;2022-11-15T10:40:05;12.50;99.90
33673;DHT22;20011;51.510;9.942;2022-11-15T10:42:33;12.50;99.90
33673;DHT22;20011;51.510;9.942;2022-11-15T10:45:00;12.50;99.90
33673;DHT22;20011;51.510;9.942;2022-11-15T10:47:31;12.50;99.90
33673;DHT22;20011;51.510;9.942;2022-11-15T10:52:56;12.60;99.90
33673;DHT22;20011;51.510;9.942;2022-11-15T10:55:30;12.70;99.90
33673;DHT22;20011;51.510;9.942;2022-11-15T10:58:19;12.70;99.90
33673;DHT22;20011;51.510;9.942;2022-11-15T11:00:48;12.70;99.90
33673;DHT22;20011;51.510;9.942;2022-11-15T11:04:01;12.70;99.90
33673;DHT22;20011;51.510;9.942;2022-11-15T11:06:29;12.80;99.90
33673;DHT22;20011;51.510;9.942;2022-11-15T11:09:05;12.80;99.90
33673;DHT22;20011;51.510;9.942;2022-11-15T11:11:46;12.80;99.90
33673;DHT22;20011;51.510;9.942;2022-11-15T11:14:25;12.80;99.90
33673;DHT22;20011;51.510;9.942;2022-11-15T11:22:22;12.90;99.90
33673;DHT22;20011;51.510;9.942;2022-11-15T11:25:26;12.90;99.90
33673;DHT22;20011;51.510;9.942;2022-11-15T11:28:30;12.90;99.90
33673;DHT22;20011;51.510;9.942;2022-11-15T11:34:17;13.00;99.90
33673;DHT22;20011;51.510;9.942;2022-11-15T11:42:23;13.10;99.90
33673;DHT22;20011;51.510;9.942;2022-11-15T11:45:05;13.10;99.90
33673;DHT22;20011;51.510;9.942;2022-11-15T11:47:47;13.10;99.90
33673;DHT22;20011;51.510;9.942;2022-11-15T11:50:19;13.10;99.90
33673;DHT22;20011;51.510;9.942;2022-11-15T11:55:51;13.10;99.90
33673;DHT22;20011;51.510;9.942;2022-11-15T11:58:36;13.10;99.90
33673;DHT22;20011;51.510;9.942;2022-11-15T12:09:35;13.20;99.90
33673;DHT22;20011;51.510;9.942;2022-11-15T12:12:30;13.20;99.90
33673;DHT22;20011;51.510;9.942;2022-11-15T12:17:37;13.20;99.90
33673;DHT22;20011;51.510;9.942;2022-11-15T12:20:24;13.20;99.90
33673;DHT22;20011;51.510;9.942;2022-11-15T12:26:19;13.20;99.90
33673;DHT22;20011;51.510;9.942;2022-11-15T12:28:52;13.20;99.90
33673;DHT22;20011;51.510;9.942;2022-11-15T12:31:45;13.30;99.90
33673;DHT22;20011;51.510;9.942;2022-11-15T12:36:50;13.30;99.90
33673;DHT22;20011;51.510;9.942;2022-11-15T12:39:18;13.30;99.90
33673;DHT22;20011;51.510;9.942;2022-11-15T12:46:59;13.30;99.90
33673;DHT22;20011;51.510;9.942;2022-11-15T12:59:58;13.40;99.90
33673;DHT22;20011;51.510;9.942;2022-11-15T13:20:17;13.40;99.90
33673;DHT22;20011;51.510;9.942;2022-11-15T13:27:58;13.40;99.90
33673;DHT22;20011;51.510;9.942;2022-11-15T13:30:32;13.40;99.90
33673;DHT22;20011;51.510;9.942;2022-11-15T13:33:22;13.40;99.90
33673;DHT22;20011;51.510;9.942;2022-11-15T13:36:24;13.40;99.90
33673;DHT22;20011;51.510;9.942;2022-11-15T13:39:03;13.50;99.90
33673;DHT22;20011;51.510;9.942;2022-11-15T13:41:36;13.50;99.90
33673;DHT22;20011;51.510;9.942;2022-11-15T13:44:05;13.50;99.90
33673;DHT22;20011;51.510;9.942;2022-11-15T13:46:45;13.50;99.90
33673;DHT22;20011;51.510;9.942;2022-11-15T13:49:12;13.50;99.90
33673;DHT22;20011;51.510;9.942;2022-11-15T13:51:42;13.50;99.90
33673;DHT22;20011;51.510;9.942;2022-11-15T13:56:37;13.50;99.90
33673;DHT22;20011;51.510;9.942;2022-11-15T13:59:16;13.50;99.90
33673;DHT22;20011;51.510;9.942;2022-11-15T14:01:44;13.50;99.90
33673;DHT22;20011;51.510;9.942;2022-11-15T14:04:13;13.50;99.90
33673;DHT22;20011;51.510;9.942;2022-11-15T14:06:47;13.50;99.90
33673;DHT22;20011;51.510;9.942;2022-11-15T14:12:01;13.50;99.90
33673;DHT22;20011;51.510;9.942;2022-11-15T14:14:29;13.40;99.90
33673;DHT22;20011;51.510;9.942;2022-11-15T14:16:59;13.40;99.90
33673;DHT22;20011;51.510;9.942;2022-11-15T14:24:46;13.50;99.90
33673;DHT22;20011;51.510;9.942;2022-11-15T14:27:21;13.50;99.90
33673;DHT22;20011;51.510;9.942;2022-11-15T14:29:48;13.50;99.90
33673;DHT22;20011;51.510;9.942;2022-11-15T14:34:58;13.40;99.90
33673;DHT22;20011;51.510;9.942;2022-11-15T14:37:28;13.40;99.90
33673;DHT22;20011;51.510;9.942;2022-11-15T14:39:55;13.40;99.90
33673;DHT22;20011;51.510;9.942;2022-11-15T14:42:23;13.40;99.90
33673;DHT22;20011;51.510;9.942;2022-11-15T14:44:50;13.40;99.90
33673;DHT22;20011;51.510;9.942;2022-11-15T14:47:21;13.40;99.90
33673;DHT22;20011;51.510;9.942;2022-11-15T14:49:55;13.40;99.90
33673;DHT22;20011;51.510;9.942;2022-11-15T14:52:27;13.40;99.90
33673;DHT22;20011;51.510;9.942;2022-11-15T14:55:00;13.30;99.90
33673;DHT22;20011;51.510;9.942;2022-11-15T14:57:34;13.30;99.90
33673;DHT22;20011;51.510;9.942;2022-11-15T15:00:04;13.40;99.90
33673;DHT22;20011;51.510;9.942;2022-11-15T15:02:43;13.40;99.90
33673;DHT22;20011;51.510;9.942;2022-11-15T15:05:17;13.30;99.90
33673;DHT22;20011;51.510;9.942;2022-11-15T15:07:49;13.30;99.90
33673;DHT22;20011;51.510;9.942;2022-11-15T15:10:18;13.30;99.90
33673;DHT22;20011;51.510;9.942;2022-11-15T15:13:18;13.30;99.90
33673;DHT22;20011;51.510;9.942;2022-11-15T15:15:52;13.30;99.90
33673;DHT22;20011;51.510;9.942;2022-11-15T15:18:24;13.30;99.90
33673;DHT22;20011;51.510;9.942;2022-11-15T15:20:57;13.30;99.90
33673;DHT22;20011;51.510;9.942;2022-11-15T15:23:29;13.30;99.90
33673;DHT22;20011;51.510;9.942;2022-11-15T15:25:57;13.20;99.90
33673;DHT22;20011;51.510;9.942;2022-11-15T15:28:25;13.30;99.90
33673;DHT22;20011;51.510;9.942;2022-11-15T15:30:59;13.20;99.90
33673;DHT22;20011;51.510;9.942;2022-11-15T15:33:26;13.20;99.90
33673;DHT22;20011;51.510;9.942;2022-11-15T15:35:53;13.20;99.90
33673;DHT22;20011;51.510;9.942;2022-11-15T15:38:20;13.20;99.90
33673;DHT22;20011;51.510;9.942;2022-11-15T15:40:48;13.20;99.90
33673;DHT22;20011;51.510;9.942;2022-11-15T15:43:17;13.10;99.90
33673;DHT22;20011;51.510;9.942;2022-11-15T15:45:44;13.10;99.90
33673;DHT22;20011;51.510;9.942;2022-11-15T15:48:16;13.10;99.90
33673;DHT22;20011;51.510;9.942;2022-11-15T15:50:43;13.10;99.90
33673;DHT22;20011;51.510;9.942;2022-11-15T15:53:11;13.10;99.90
33673;DHT22;20011;51.510;9.942;2022-11-15T15:55:39;13.10;99.90
33673;DHT22;20011;51.510;9.942;2022-11-15T15:58:06;13.00;99.90
33673;DHT22;20011;51.510;9.942;2022-11-15T16:00:35;13.00;99.90
33673;DHT22;20011;51.510;9.942;2022-11-15T16:03:03;13.00;99.90
33673;DHT22;20011;51.510;9.942;2022-11-15T16:05:30;13.00;99.90
33673;DHT22;20011;51.510;9.942;2022-11-15T16:07:57;13.00;99.90
33673;DHT22;20011;51.510;9.942;2022-11-15T16:10:27;13.00;99.90
33673;DHT22;20011;51.510;9.942;2022-11-15T16:12:55;13.00;99.90
33673;DHT22;20011;51.510;9.942;2022-11-15T16:15:25;13.00;99.90
33673;DHT22;20011;51.510;9.942;2022-11-15T16:17:54;13.00;99.90
33673;DHT22;20011;51.510;9.942;2022-11-15T16:23:14;13.00;99.90
33673;DHT22;20011;51.510;9.942;2022-11-15T16:28:30;13.00;99.90
33673;DHT22;20011;51.510;9.942;2022-11-15T16:31:11;12.90;99.90
33673;DHT22;20011;51.510;9.942;2022-11-15T16:33:39;12.90;99.90
33673;DHT22;20011;51.510;9.942;2022-11-15T16:36:24;12.90;99.90
33673;DHT22;20011;51.510;9.942;2022-11-15T16:38:56;12.90;99.90
33673;DHT22;20011;51.510;9.942;2022-11-15T16:41:23;12.90;99.90
33673;DHT22;20011;51.510;9.942;2022-11-15T16:43:51;12.90;99.90
33673;DHT22;20011;51.510;9.942;2022-11-15T16:46:25;12.90;99.90
33673;DHT22;20011;51.510;9.942;2022-11-15T16:48:53;12.90;99.90
33673;DHT22;20011;51.510;9.942;2022-11-15T16:51:21;12.80;99.90
33673;DHT22;20011;51.510;9.942;2022-11-15T16:53:49;12.80;99.90
33673;DHT22;20011;51.510;9.942;2022-11-15T16:56:29;12.80;99.90
33673;DHT22;20011;51.510;9.942;2022-11-15T16:58:58;12.90;99.90
33673;DHT22;20011;51.510;9.942;2022-11-15T17:01:27;12.80;99.90
33673;DHT22;20011;51.510;9.942;2022-11-15T17:03:55;12.80;99.90
33673;DHT22;20011;51.510;9.942;2022-11-15T17:06:24;12.90;99.90
33673;DHT22;20011;51.510;9.942;2022-11-15T17:08:51;12.90;99.90
33673;DHT22;20011;51.510;9.942;2022-11-15T17:11:20;12.90;99.90
33673;DHT22;20011;51.510;9.942;2022-11-15T17:13:49;12.80;99.90
33673;DHT22;20011;51.510;9.942;2022-11-15T17:16:17;12.90;99.90
33673;DHT22;20011;51.510;9.942;2022-11-15T17:18:50;12.90;99.90
33673;DHT22;20011;51.510;9.942;2022-11-15T17:21:19;12.80;99.90
33673;DHT22;20011;51.510;9.942;2022-11-15T17:23:47;12.80;99.90
33673;DHT22;20011;51.510;9.942;2022-11-15T17:26:15;12.80;99.90
33673;DHT22;20011;51.510;9.942;2022-11-15T17:28:56;12.90;99.90
33673;DHT22;20011;51.510;9.942;2022-11-15T17:31:23;12.80;99.90
33673;DHT22;20011;51.510;9.942;2022-11-15T17:33:51;12.80;99.90
33673;DHT22;20011;51.510;9.942;2022-11-15T17:36:18;12.80;99.90
33673;DHT22;20011;51.510;9.942;2022-11-15T17:38:45;12.80;99.90
33673;DHT22;20011;51.510;9.942;2022-11-15T17:41:16;12.80;99.90
33673;DHT22;20011;51.510;9.942;2022-11-15T17:43:43;12.90;99.90
33673;DHT22;20011;51.510;9.942;2022-11-15T17:46:13;12.80;99.90
33673;DHT22;20011;51.510;9.942;2022-11-15T17:48:40;12.90;99.90
33673;DHT22;20011;51.510;9.942;2022-11-15T17:51:10;12.90;99.90
33673;DHT22;20011;51.510;9.942;2022-11-15T17:53:41;12.90;99.90
33673;DHT22;20011;51.510;9.942;2022-11-15T17:56:13;12.90;99.90
33673;DHT22;20011;51.510;9.942;2022-11-15T17:58:41;12.90;99.90
33673;DHT22;20011;51.510;9.942;2022-11-15T18:03:42;12.90;99.90
33673;DHT22;20011;51.510;9.942;2022-11-15T18:06:11;12.90;99.90
33673;DHT22;20011;51.510;9.942;2022-11-15T18:08:39;12.90;99.90
33673;DHT22;20011;51.510;9.942;2022-11-15T18:11:15;12.90;99.90
33673;DHT22;20011;51.510;9.942;2022-11-15T18:13:44;12.90;99.90
33673;DHT22;20011;51.510;9.942;2022-11-15T18:16:19;12.90;99.90
33673;DHT22;20011;51.510;9.942;2022-11-15T18:18:47;12.80;99.90
33673;DHT22;20011;51.510;9.942;2022-11-15T18:21:17;12.80;99.90
33673;DHT22;20011;51.510;9.942;2022-11-15T18:23:47;12.90;99.90
33673;DHT22;20011;51.510;9.942;2022-11-15T18:26:16;12.90;99.90
33673;DHT22;20011;51.510;9.942;2022-11-15T18:28:46;12.90;99.90
33673;DHT22;20011;51.510;9.942;2022-11-15T18:31:22;12.90;99.90
33673;DHT22;20011;51.510;9.942;2022-11-15T18:33:50;12.90;99.90
33673;DHT22;20011;51.510;9.942;2022-11-15T18:36:20;12.90;99.90
33673;DHT22;20011;51.510;9.942;2022-11-15T18:38:53;12.90;99.90
33673;DHT22;20011;51.510;9.942;2022-11-15T18:41:22;12.90;99.90
33673;DHT22;20011;51.510;9.942;2022-11-15T18:43:51;12.90;99.90
33673;DHT22;20011;51.510;9.942;2022-11-15T18:46:20;12.90;99.90
33673;DHT22;20011;51.510;9.942;2022-11-15T18:48:49;12.90;99.90
33673;DHT22;20011;51.510;9.942;2022-11-15T18:51:24;12.90;99.90
33673;DHT22;20011;51.510;9.942;2022-11-15T18:53:58;12.90;99.90
33673;DHT22;20011;51.510;9.942;2022-11-15T18:56:27;12.90;99.90
33673;DHT22;20011;51.510;9.942;2022-11-15T18:58:57;12.90;99.90
33673;DHT22;20011;51.510;9.942;2022-11-15T19:01:33;12.90;99.90
33673;DHT22;20011;51.510;9.942;2022-11-15T19:04:15;12.90;99.90
33673;DHT22;20011;51.510;9.942;2022-11-15T19:06:48;12.90;99.90
33673;DHT22;20011;51.510;9.942;2022-11-15T19:09:16;12.90;99.90
33673;DHT22;20011;51.510;9.942;2022-11-15T19:11:45;12.90;99.90
33673;DHT22;20011;51.510;9.942;2022-11-15T19:14:17;12.90;99.90
33673;DHT22;20011;51.510;9.942;2022-11-15T19:16:46;12.90;99.90
33673;DHT22;20011;51.510;9.942;2022-11-15T19:19:20;12.90;99.90
33673;DHT22;20011;51.510;9.942;2022-11-15T19:21:47;12.90;99.90
33673;DHT22;20011;51.510;9.942;2022-11-15T19:24:15;12.90;99.90